Time;durP1;ratioP1;P1;durP2;ratioP2;P2;SDS_P1;SDS_P2;PMS_P1;PMS_P2;Temp;Humidity;BMP_temperature;BMP_pressure;BME280_temperature;BME280_humidity;BME280_pressure;Samples;Min_cycle;Max_cycle;Signal;HPM_P1;HPM_P2
2021/04/21 00:01:20;;;;;;;22.38;12.95;;;4.60;99.90;;;3.54;77.50;97421.91;5009915;28;20052;-65
2021/04/21 00:03:48;;;;;;;24.45;14.77;;;4.50;99.90;;;3.65;78.52;97420.00;5008232;28;20107;-66
2021/04/21 00:06:16;;;;;;;20.23;13.45;;;4.50;99.90;;;3.76;76.50;97412.09;5002411;28;20088;-65
2021/04/21 00:08:44;;;;;;;18.25;11.70;;;4.50;99.90;;;3.87;75.19;97423.03;5010982;28;20041;-65
2021/04/21 00:11:11;;;;;;;21.10;11.32;;;4.50;99.90;;;3.89;74.33;97417.88;5016098;28;20119;-65
2021/04/21 00:13:39;;;;;;;18.67;12.07;;;4.60;99.90;;;3.95;73.84;97415.19;5010089;28;20137;-66
2021/04/21 00:16:06;;;;;;;19.45;11.88;;;4.70;99.90;;;3.94;74.19;97411.75;5008752;28;20502;-66
2021/04/21 00:18:36;;;;;;;19.52;12.43;;;4.70;99.90;;;4.01;73.41;97416.78;4990343;28;20120;-65
2021/04/21 00:21:04;;;;;;;19.50;11.50;;;4.70;99.90;;;3.97;72.61;97410.88;5006332;28;20065;-66
2021/04/21 00:23:34;;;;;;;16.10;9.85;;;4.70;99.90;;;3.77;71.98;97409.50;5006950;28;20090;-65
2021/04/21 00:26:02;;;;;;;15.52;9.43;;;4.60;99.90;;;3.53;72.85;97407.38;4973251;28;20652;-65
2021/04/21 00:28:33;;;;;;;17.30;10.70;;;4.50;99.90;;;3.43;73.20;97408.41;5008869;28;20041;-65
2021/04/21 00:31:05;;;;;;;16.30;10.80;;;4.40;99.90;;;3.37;74.26;97411.91;5006174;28;20047;-65
2021/04/21 00:33:34;;;;;;;21.38;12.82;;;4.30;99.90;;;3.42;75.04;97406.72;4994040;28;20049;-65
2021/04/21 00:36:04;;;;;;;18.15;11.60;;;4.30;99.90;;;3.58;73.57;97403.03;5031232;28;20063;-66
2021/04/21 00:38:32;;;;;;;20.25;10.88;;;4.30;99.90;;;3.55;73.09;97405.63;5032598;28;20115;-65
2021/04/21 00:41:30;;;;;;;18.73;11.23;;;4.30;99.90;;;3.54;74.52;97406.53;5019123;28;20049;-65
2021/04/21 00:44:41;;;;;;;17.90;11.02;;;4.30;99.90;;;3.47;73.85;97400.66;5030566;28;20531;-65
2021/04/21 00:47:15;;;;;;;15.82;10.85;;;4.30;99.90;;;3.32;74.31;97406.03;5023162;28;20140;-65
2021/04/21 00:50:15;;;;;;;18.98;12.20;;;4.30;99.90;;;3.31;75.02;97402.63;5016748;28;20140;-65
2021/04/21 00:53:31;;;;;;;17.90;12.70;;;4.20;99.90;;;3.43;74.65;97403.28;5016995;28;20122;-65
2021/04/21 00:57:27;;;;;;;18.27;10.70;;;4.20;99.90;;;3.21;73.89;97395.09;5029558;28;20172;-66
2021/04/21 01:00:37;;;;;;;19.92;11.02;;;4.20;99.90;;;3.02;74.75;97400.50;4984286;28;20124;-65
2021/04/21 01:03:26;;;;;;;21.13;13.57;;;4.00;99.90;;;3.07;76.02;97397.88;5019338;28;20139;-66
2021/04/21 01:06:05;;;;;;;21.35;12.75;;;3.90;99.90;;;3.07;76.17;97403.84;5028229;28;20139;-65
2021/04/21 01:08:38;;;;;;;20.73;12.27;;;3.80;99.90;;;3.08;76.40;97400.44;5012172;28;20108;-67
2021/04/21 01:11:15;;;;;;;20.02;13.13;;;3.90;99.90;;;3.01;76.90;97393.72;5011755;28;20038;-66
2021/04/21 01:14:23;;;;;;;18.65;11.85;;;3.90;99.90;;;2.92;76.94;97389.56;5011717;28;20089;-65
2021/04/21 01:16:56;;;;;;;19.40;11.68;;;3.90;99.90;;;2.89;76.70;97388.75;5028165;28;20490;-66
2021/04/21 01:19:56;;;;;;;19.15;11.35;;;3.90;99.90;;;3.02;76.10;97395.38;4995734;28;20459;-65
2021/04/21 01:23:15;;;;;;;20.13;12.05;;;3.90;99.90;;;3.07;76.03;97391.03;5025685;28;20061;-65
2021/04/21 01:26:05;;;;;;;17.77;10.57;;;3.90;99.90;;;3.12;74.50;97389.25;5006223;28;20056;-65
2021/04/21 01:28:56;;;;;;;17.33;11.93;;;3.90;99.90;;;3.11;75.23;97391.84;5026310;28;20038;-66
2021/04/21 01:31:45;;;;;;;20.33;12.77;;;3.90;99.90;;;2.98;77.43;97393.72;5026499;28;20049;-66
2021/04/21 01:34:34;;;;;;;23.05;12.40;;;3.80;99.90;;;2.97;75.64;97388.66;5007807;28;20049;-65
2021/04/21 01:37:27;;;;;;;18.42;11.18;;;3.70;99.90;;;3.00;75.09;97389.44;5030164;28;20076;-68
2021/04/21 01:40:20;;;;;;;17.73;11.90;;;3.80;99.90;;;3.12;75.04;97396.09;5020213;28;20041;-66
2021/04/21 01:42:54;;;;;;;16.33;10.70;;;3.80;99.90;;;3.06;74.61;97391.91;5033386;28;20046;-65
2021/04/21 01:45:27;;;;;;;18.42;10.85;;;3.90;99.90;;;3.04;75.06;97397.94;5027766;28;20060;-65
2021/04/21 01:48:00;;;;;;;17.20;10.23;;;3.90;99.90;;;3.08;74.02;97392.72;5016280;28;20104;-65
2021/04/21 01:50:48;;;;;;;18.20;10.50;;;3.90;99.90;;;2.87;73.76;97393.03;5007620;28;20045;-66
2021/04/21 01:54:10;;;;;;;14.40;9.15;;;3.80;99.90;;;2.81;74.52;97391.44;5012880;28;20079;-65
2021/04/21 01:57:08;;;;;;;16.25;10.35;;;3.70;99.90;;;2.80;75.85;97387.16;5005887;28;20123;-65
2021/04/21 02:00:41;;;;;;;19.67;13.18;;;3.70;99.90;;;2.76;77.01;97393.22;5027518;28;20038;-65
2021/04/21 02:03:41;;;;;;;19.30;11.60;;;3.60;99.90;;;2.67;78.41;97383.13;5005627;28;20633;-65
2021/04/21 02:06:45;;;;;;;17.80;11.43;;;3.50;99.90;;;2.69;78.48;97387.34;4993672;28;20513;-65
2021/04/21 02:10:13;;;;;;;15.02;10.55;;;3.40;99.90;;;2.81;76.47;97388.03;5011008;28;20132;-66
2021/04/21 02:13:08;;;;;;;15.13;9.43;;;3.50;99.90;;;2.82;76.08;97390.56;5008570;28;20104;-65
2021/04/21 02:15:48;;;;;;;18.25;10.05;;;3.60;99.90;;;2.86;75.51;97392.22;5022118;28;20037;-65
2021/04/21 02:18:52;;;;;;;13.93;8.90;;;3.60;99.90;;;2.78;75.71;97388.06;5027880;28;20045;-65
2021/04/21 02:22:18;;;;;;;17.20;10.73;;;3.60;99.90;;;2.48;76.59;97396.16;5029130;28;20470;-65
2021/04/21 02:25:01;;;;;;;17.88;11.45;;;3.50;99.90;;;2.61;76.42;97398.56;5018593;28;20057;-65
2021/04/21 02:27:47;;;;;;;15.90;10.13;;;3.50;99.90;;;2.69;75.73;97389.03;5028766;28;20046;-65
2021/04/21 02:30:50;;;;;;;19.45;11.80;;;3.50;99.90;;;2.45;75.61;97397.91;5036270;28;20467;-65
2021/04/21 02:33:20;;;;;;;18.17;11.45;;;3.50;99.90;;;2.59;75.50;97397.72;5012807;28;20409;-66
2021/04/21 02:36:00;;;;;;;17.60;10.68;;;3.40;99.90;;;2.61;75.17;97404.53;5028820;28;20045;-65
2021/04/21 02:38:35;;;;;;;19.60;11.65;;;3.40;99.90;;;2.56;75.21;97401.19;5029288;28;20045;-65
2021/04/21 02:41:15;;;;;;;17.13;11.02;;;3.30;99.90;;;2.60;74.62;97394.28;4982402;28;20042;-65
2021/04/21 02:44:36;;;;;;;22.17;10.25;;;3.30;99.90;;;2.58;74.75;97391.75;5002970;28;20207;-65
2021/04/21 02:47:12;;;;;;;16.02;8.75;;;3.30;99.90;;;2.47;74.77;97393.63;5025388;28;20104;-65
2021/04/21 02:51:03;;;;;;;15.70;9.63;;;3.30;99.90;;;2.44;74.60;97401.34;5000678;28;20534;-65
2021/04/21 02:53:44;;;;;;;15.73;9.48;;;3.20;99.90;;;2.14;76.16;97393.16;4956096;28;20049;-65
2021/04/21 02:56:30;;;;;;;16.88;10.07;;;3.10;99.90;;;2.16;76.13;97388.03;4994357;28;20049;-65
2021/04/21 02:59:51;;;;;;;17.00;10.50;;;3.10;99.90;;;2.10;77.06;97396.66;5027148;28;20131;-65
2021/04/21 03:02:33;;;;;;;20.00;12.10;;;3.10;99.90;;;2.12;77.20;97394.06;5010397;28;20132;-65
2021/04/21 03:05:15;;;;;;;19.85;11.55;;;3.10;99.90;;;1.98;77.76;97391.66;5008598;28;20123;-65
2021/04/21 03:07:55;;;;;;;20.98;11.90;;;3.00;99.90;;;2.02;77.41;97393.31;5027948;28;20138;-65
2021/04/21 03:10:30;;;;;;;17.50;10.80;;;3.00;99.90;;;1.99;77.84;97393.38;5028898;28;20080;-66
2021/04/21 03:13:11;;;;;;;15.25;9.70;;;3.00;99.90;;;2.11;76.59;97392.38;5009439;28;20037;-65
2021/04/21 03:15:49;;;;;;;17.27;9.90;;;3.00;99.90;;;2.13;75.79;97386.38;5009481;28;20049;-65
2021/04/21 03:18:40;;;;;;;19.25;10.38;;;3.00;99.90;;;2.11;75.20;97377.00;5011264;28;20045;-65
2021/04/21 03:21:30;;;;;;;17.10;10.45;;;3.00;99.90;;;2.05;75.38;97386.47;5010759;28;20041;-65
2021/04/21 03:24:22;;;;;;;17.65;10.82;;;2.90;99.90;;;2.04;76.27;97387.31;5028036;28;20038;-66
2021/04/21 03:26:52;;;;;;;18.15;11.65;;;2.90;99.90;;;1.90;77.15;97380.69;5007932;28;20041;-66
2021/04/21 03:29:32;;;;;;;17.92;11.60;;;2.80;99.90;;;1.92;78.32;97381.50;5011691;28;20057;-66
2021/04/21 03:32:02;;;;;;;20.50;12.52;;;2.90;99.90;;;1.98;78.24;97383.97;4992057;28;20486;-65
2021/04/21 03:34:29;;;;;;;19.58;12.70;;;2.80;99.90;;;1.85;78.12;97378.16;4994607;28;20498;-65
2021/04/21 03:36:57;;;;;;;21.98;13.02;;;2.80;99.90;;;1.74;78.54;97382.56;5002995;28;20045;-65
2021/04/21 03:39:23;;;;;;;24.60;14.38;;;2.80;99.90;;;1.82;79.42;97379.03;5011116;28;20046;-65
2021/04/21 03:41:51;;;;;;;23.80;14.77;;;2.70;99.90;;;1.79;79.97;97378.22;5026789;28;20041;-65
2021/04/21 03:44:18;;;;;;;27.25;14.68;;;2.60;99.90;;;1.73;79.93;97375.72;5027442;28;20109;-65
2021/04/21 03:46:45;;;;;;;21.83;13.45;;;2.60;99.90;;;1.70;79.95;97368.94;5027387;28;21708;-65
2021/04/21 03:49:12;;;;;;;21.10;13.02;;;2.60;99.90;;;1.77;79.44;97383.34;5028576;28;20049;-65
2021/04/21 03:51:40;;;;;;;21.30;12.82;;;2.70;99.90;;;1.66;80.31;97372.38;5000088;28;20046;-65
2021/04/21 03:54:09;;;;;;;18.88;11.07;;;2.70;99.90;;;1.70;79.62;97376.63;4993625;28;20407;-65
2021/04/21 03:56:40;;;;;;;25.42;13.60;;;2.70;99.90;;;1.74;79.60;97377.44;5024989;28;20041;-65
2021/04/21 03:59:12;;;;;;;20.35;12.40;;;2.60;99.90;;;1.77;78.19;97375.69;5009736;28;20049;-65
2021/04/21 04:01:42;;;;;;;19.40;11.40;;;2.60;99.90;;;1.81;77.42;97376.50;5008090;28;20120;-65
2021/04/21 04:04:11;;;;;;;18.92;11.43;;;2.60;99.90;;;1.78;77.89;97371.41;4991288;28;20148;-66
2021/04/21 04:07:08;;;;;;;21.08;12.30;;;2.70;99.90;;;1.81;78.13;97374.78;5023454;28;20069;-65
2021/04/21 04:09:38;;;;;;;22.23;12.70;;;2.70;99.90;;;1.81;78.07;97374.78;5001431;28;20057;-66
2021/04/21 04:12:06;;;;;;;22.88;12.70;;;2.70;99.90;;;1.86;77.85;97372.16;5027556;28;20073;-65
2021/04/21 04:14:39;;;;;;;18.52;10.77;;;2.70;99.90;;;1.87;76.83;97372.16;5028351;28;20116;-65
2021/04/21 04:17:06;;;;;;;;;;;2.70;99.90;;;1.72;76.46;97372.31;5027058;28;20080;-65
2021/04/21 04:19:39;;;;;;;16.13;9.65;;;2.70;99.90;;;1.75;76.02;97377.41;5009498;28;20014;-65
2021/04/21 04:22:08;;;;;;;;;;;2.60;99.90;;;1.48;76.89;97382.81;5010533;28;20493;-65
2021/04/21 04:24:43;;;;;;;21.42;13.13;;;2.50;99.90;;;1.39;78.34;97379.50;5010764;28;20510;-65
2021/04/21 04:27:21;;;;;;;19.92;12.57;;;2.40;99.90;;;1.55;78.05;97381.88;5026005;28;20058;-66
2021/04/21 04:29:50;;;;;;;20.35;11.07;;;2.40;99.90;;;1.53;78.17;97384.47;5025977;28;20128;-65
2021/04/21 04:32:20;;;;;;;20.85;12.15;;;2.40;99.90;;;1.44;78.77;97387.13;5026468;28;20033;-65
2021/04/21 04:34:57;;;;;;;22.45;12.05;;;2.40;99.90;;;1.38;78.76;97382.91;5026740;28;20085;-65
2021/04/21 04:37:33;;;;;;;21.65;13.30;;;2.40;99.90;;;1.43;78.93;97387.97;5027675;28;20053;-65
2021/04/21 04:40:01;;;;;;;21.25;12.68;;;2.40;99.90;;;1.68;78.48;97393.69;5023649;28;20533;-65
2021/04/21 04:42:28;;;;;;;20.83;12.25;;;2.50;99.90;;;1.79;77.85;97389.31;5008041;28;20053;-65
2021/04/21 04:44:55;;;;;;;20.90;12.95;;;2.50;99.90;;;1.66;80.06;97398.81;5026082;28;20050;-65
2021/04/21 04:47:30;;;;;;;20.73;11.73;;;2.60;99.90;;;1.81;77.65;97395.25;5024613;28;20046;-65
2021/04/21 04:50:13;;;;;;;18.55;11.35;;;2.70;99.90;;;1.75;77.79;97402.16;5026194;28;20123;-66
2021/04/21 04:52:43;;;;;;;18.73;11.27;;;2.60;99.90;;;1.78;77.31;97399.53;5025923;28;20045;-66
2021/04/21 04:55:14;;;;;;;21.88;12.45;;;2.60;99.90;;;1.71;78.74;97401.34;5021869;28;20121;-66
2021/04/21 04:57:50;;;;;;;18.00;11.20;;;2.70;99.90;;;1.79;77.19;97401.25;5008975;28;20138;-65
2021/04/21 05:00:27;;;;;;;21.52;12.23;;;2.70;99.90;;;1.95;76.26;97404.50;5030182;28;20096;-65
2021/04/21 05:02:53;;;;;;;21.95;13.05;;;2.80;99.90;;;1.97;76.37;97411.28;5031424;28;20049;-65
2021/04/21 05:05:21;;;;;;;26.10;14.85;;;2.80;99.90;;;1.80;77.46;97410.63;5028194;28;20095;-65
2021/04/21 05:08:03;;;;;;;27.00;14.65;;;2.90;99.90;;;1.81;78.27;97409.78;5013568;28;20069;-65
2021/04/21 05:10:56;;;;;;;21.63;12.50;;;2.90;99.90;;;1.82;79.00;97412.28;4994128;28;20042;-65
2021/04/21 05:13:24;;;;;;;18.02;11.55;;;2.90;99.90;;;1.87;77.57;97410.56;5006381;28;20148;-65
2021/04/21 05:16:14;;;;;;;19.20;11.07;;;2.90;99.90;;;2.01;76.92;97420.66;5003488;28;20037;-65
2021/04/21 05:19:23;;;;;;;17.20;10.32;;;3.00;99.90;;;2.09;76.67;97415.44;5027410;28;20120;-65
2021/04/21 05:22:32;;;;;;;21.70;12.35;;;3.10;99.90;;;2.13;77.72;97421.38;5024260;28;20030;-65
2021/04/21 05:26:02;;;;;;;23.00;13.13;;;3.20;99.90;;;2.29;76.70;97426.28;5026253;28;20049;-65
2021/04/21 05:29:45;;;;;;;28.23;15.98;;;3.30;99.90;;;2.22;76.98;97428.94;5025928;28;20042;-65
2021/04/21 05:32:53;;;;;;;25.38;16.80;;;3.30;99.90;;;2.22;77.36;97434.91;5009935;28;20053;-65
2021/04/21 05:35:56;;;;;;;20.90;14.60;;;3.30;99.90;;;2.36;77.00;97429.63;5025950;28;20438;-65
2021/04/21 05:39:40;;;;;;;23.58;13.05;;;3.30;99.90;;;2.53;76.54;97433.69;5024520;28;20048;-65
2021/04/21 05:43:04;;;;;;;26.65;14.20;;;3.50;99.90;;;2.83;75.09;97430.72;5022020;28;20048;-65
2021/04/21 05:46:43;;;;;;;23.92;15.27;;;3.80;99.90;;;3.01;74.60;97419.34;5027929;28;20041;-65
2021/04/21 05:49:49;;;;;;;24.65;13.65;;;4.00;99.90;;;3.31;74.24;97423.16;5030678;28;20112;-65
2021/04/21 05:53:00;;;;;;;19.27;12.38;;;4.30;99.90;;;3.56;73.88;97425.31;5032616;28;20088;-65
2021/04/21 05:56:24;;;;;;;22.80;12.57;;;4.60;99.90;;;3.86;73.41;97426.47;5014110;28;20141;-65
2021/04/21 05:59:43;;;;;;;21.05;13.60;;;4.90;99.90;;;3.79;74.50;97422.34;5029704;28;20045;-65
2021/04/21 06:02:31;;;;;;;28.33;17.67;;;5.20;99.90;;;3.89;74.61;97421.28;5016792;28;20046;-65
2021/04/21 06:05:18;;;;;;;29.35;18.88;;;5.20;99.90;;;3.88;74.98;97424.72;4997191;28;20218;-65
2021/04/21 06:08:10;;;;;;;24.40;16.00;;;5.10;99.90;;;4.11;74.68;97429.44;5028766;28;20134;-65
2021/04/21 06:10:58;;;;;;;25.73;16.52;;;5.00;99.90;;;4.29;74.19;97430.81;5028145;28;20441;-66
2021/04/21 06:13:46;;;;;;;27.38;16.77;;;5.00;99.90;;;4.31;74.54;97426.47;5031941;28;20053;-65
2021/04/21 06:16:35;;;;;;;37.58;24.13;;;5.10;99.90;;;4.37;74.09;97426.34;5009568;28;20062;-65
2021/04/21 06:19:26;;;;;;;37.05;24.27;;;5.10;99.90;;;4.48;74.46;97433.00;5010011;28;20463;-65
2021/04/21 06:22:12;;;;;;;25.45;16.80;;;5.20;99.90;;;4.55;74.87;97432.00;5020340;28;20124;-65
2021/04/21 06:25:14;;;;;;;25.08;16.67;;;5.30;99.90;;;4.90;74.17;97433.78;5027179;28;20041;-65
2021/04/21 06:28:11;;;;;;;23.65;15.63;;;5.50;99.90;;;5.16;74.45;97440.09;5028829;28;20132;-65
2021/04/21 06:31:10;;;;;;;24.27;13.63;;;5.90;99.90;;;5.45;73.15;97436.78;5026708;28;20050;-65
2021/04/21 06:33:43;;;;;;;19.90;13.90;;;6.40;99.90;;;5.67;72.97;97434.53;5020154;28;20055;-65
2021/04/21 06:36:12;;;;;;;;;;;6.70;99.90;;;5.80;72.50;97435.09;5026054;28;20080;-65
2021/04/21 06:38:40;;;;;;;26.40;18.10;;;6.80;99.90;;;5.62;72.93;97437.22;5029305;28;19926;-65
2021/04/21 06:41:07;;;;;;;23.42;15.65;;;6.90;99.90;;;5.65;73.16;97437.16;5028543;28;20052;-65
2021/04/21 06:43:37;;;;;;;21.05;15.00;;;7.10;99.90;;;5.89;72.60;97442.56;5029867;28;20601;-65
2021/04/21 06:46:09;;;;;;;21.88;14.75;;;7.20;99.90;;;6.25;71.56;97445.94;5030298;28;20041;-65
2021/04/21 06:48:39;;;;;;;24.52;16.05;;;7.30;99.90;;;6.40;72.41;97444.66;5030082;28;20048;-65
2021/04/21 06:51:16;;;;;;;26.83;16.98;;;7.60;99.90;;;6.53;71.35;97437.41;4998224;28;20076;-65
2021/04/21 06:53:47;;;;;;;20.25;15.02;;;7.90;99.90;;;6.90;71.31;97444.06;5008233;28;20054;-65
2021/04/21 06:56:16;;;;;;;23.30;15.00;;;8.10;99.90;;;7.15;70.48;97441.59;4992485;28;20058;-65
2021/04/21 06:58:43;;;;;;;24.52;15.35;;;8.40;99.90;;;7.48;70.10;97443.97;5011876;28;20662;-65
2021/04/21 07:01:12;;;;;;;20.08;13.38;;;8.70;99.90;;;7.96;69.50;97441.53;5029173;28;20587;-65
2021/04/21 07:03:41;;;;;;;19.88;14.63;;;9.00;99.90;;;8.47;68.53;97428.59;5029550;28;20111;-65
2021/04/21 07:06:08;;;;;;;18.60;13.27;;;9.30;99.90;;;8.89;67.27;97435.63;5029524;28;20482;-65
2021/04/21 07:08:38;;;;;;;19.92;13.80;;;9.60;99.90;;;9.21;67.06;97435.25;5028808;28;20045;-65
2021/04/21 07:11:21;;;;;;;16.58;11.07;;;10.00;99.90;;;9.58;63.88;97425.16;5005553;28;20105;-66
2021/04/21 07:13:50;;;;;;;14.80;10.00;;;10.40;99.90;;;9.91;61.89;97432.44;5024535;28;20045;-65
2021/04/21 07:16:21;;;;;;;14.02;9.23;;;10.80;99.90;;;10.28;60.85;97434.28;5022692;28;20064;-65
2021/04/21 07:18:58;;;;;;;16.13;10.27;;;11.00;99.90;;;10.67;59.30;97433.44;4999817;28;20053;-66
2021/04/21 07:21:27;;;;;;;14.20;10.10;;;11.40;99.90;;;10.89;58.09;97436.75;5009039;28;20068;-66
2021/04/21 07:24:11;;;;;;;14.90;9.45;;;11.70;99.90;;;11.17;57.52;97438.06;4996040;28;20061;-66
2021/04/21 07:26:42;;;;;;;13.35;9.00;;;11.90;99.90;;;11.35;55.84;97433.75;5008329;28;20067;-66
2021/04/21 07:29:17;;;;;;;14.55;9.15;;;12.20;99.90;;;11.52;56.58;97436.38;5022469;28;20435;-67
2021/04/21 07:31:44;;;;;;;14.77;9.20;;;12.40;99.90;;;11.68;56.45;97444.28;5000185;28;20540;-67
2021/04/21 07:34:35;;;;;;;14.82;9.20;;;12.60;99.90;;;11.67;55.33;97445.16;5011157;28;20212;-67
2021/04/21 07:37:02;;;;;;;14.90;8.60;;;12.70;99.90;;;11.90;55.63;97440.63;5028690;28;20060;-67
2021/04/21 07:39:40;;;;;;;12.20;8.32;;;12.80;99.90;;;12.24;52.88;97433.72;5010497;28;20044;-67
2021/04/21 07:42:34;;;;;;;12.50;8.77;;;13.00;99.90;;;12.40;52.96;97428.56;5025435;28;20037;-67
2021/04/21 07:45:21;;;;;;;13.10;7.95;;;13.20;99.90;;;12.52;51.12;97427.91;5027252;28;20060;-66
2021/04/21 07:47:50;;;;;;;11.18;7.50;;;13.40;99.90;;;12.68;50.93;97430.53;5010714;28;20041;-66
2021/04/21 07:50:27;;;;;;;9.65;6.70;;;13.60;99.90;;;12.64;51.60;97434.25;5027512;28;20081;-65
2021/04/21 07:53:01;;;;;;;11.98;6.50;;;13.80;99.90;;;13.06;50.75;97428.47;5020999;28;20033;-65
2021/04/21 07:55:28;;;;;;;11.48;6.95;;;14.00;99.90;;;13.00;51.22;97436.63;5025966;28;20052;-66
2021/04/21 07:58:05;;;;;;;12.00;7.15;;;14.30;99.90;;;13.45;51.16;97435.00;5009622;28;20098;-66
2021/04/21 08:00:57;;;;;;;10.15;6.43;;;14.70;99.90;;;13.26;50.47;97431.75;5027496;28;20053;-66
2021/04/21 08:03:44;;;;;;;11.57;6.60;;;15.00;99.90;;;13.45;48.16;97432.41;5012882;28;20053;-66
2021/04/21 08:06:41;;;;;;;11.60;7.05;;;15.20;99.90;;;13.30;49.25;97434.13;5029506;28;20138;-66
2021/04/21 08:09:35;;;;;;;10.43;6.43;;;15.50;99.90;;;13.65;48.17;97433.88;5030473;28;20060;-66
2021/04/21 08:12:27;;;;;;;11.35;6.25;;;15.80;99.90;;;14.17;47.12;97436.06;5018695;28;20052;-66
2021/04/21 08:15:10;;;;;;;9.88;6.90;;;16.00;99.90;;;14.37;46.29;97442.72;5015452;28;20494;-66
2021/04/21 08:17:52;;;;;;;8.75;5.65;;;16.20;99.90;;;14.67;45.38;97436.59;4994897;28;20053;-66
2021/04/21 08:20:33;;;;;;;10.23;5.60;;;16.40;99.90;;;15.69;42.64;97428.38;5023751;28;20052;-63
2021/04/21 08:23:21;;;;;;;9.48;5.90;;;16.60;99.90;;;15.67;43.11;97428.50;4999650;28;20139;-64
2021/04/21 08:25:49;;;;;;;8.25;5.93;;;16.50;99.90;;;15.72;43.29;97430.00;5017576;28;20045;-64
2021/04/21 08:28:15;;;;;;;12.73;6.20;;;17.00;99.90;;;16.34;41.22;97438.03;5026429;28;20052;-65
2021/04/21 08:30:59;;;;;;;9.25;6.13;;;17.20;99.30;;;16.38;41.07;97433.44;5045507;28;20445;-65
2021/04/21 08:33:28;;;;;;;9.40;6.20;;;17.20;99.30;;;16.67;40.09;97432.28;5029207;28;20053;-64
2021/04/21 08:35:55;;;;;;;9.80;6.78;;;17.70;98.10;;;16.98;39.65;97437.16;5031805;28;20046;-65
2021/04/21 08:38:21;;;;;;;7.75;5.50;;;17.70;97.60;;;17.17;39.91;97432.28;5025485;28;20045;-65
2021/04/21 08:40:48;;;;;;;10.57;6.47;;;18.10;97.00;;;17.54;38.48;97437.50;5025773;28;20488;-65
2021/04/21 08:43:16;;;;;;;12.80;7.18;;;18.40;95.60;;;16.86;38.38;97433.63;5026445;28;20064;-65
2021/04/21 08:45:44;;;;;;;10.30;6.88;;;18.10;94.20;;;16.57;38.34;97438.25;5034036;28;20052;-65
2021/04/21 08:48:13;;;;;;;12.98;6.65;;;17.80;93.70;;;16.97;38.43;97436.34;5027482;28;20507;-65
2021/04/21 08:50:41;;;;;;;10.18;6.60;;;18.10;94.00;;;17.08;37.59;97435.56;5020743;28;20033;-65
2021/04/21 08:53:10;;;;;;;8.43;5.50;;;18.00;93.00;;;17.76;38.02;97439.38;5028818;28;20056;-65
2021/04/21 08:55:38;;;;;;;9.57;5.88;;;18.70;93.90;;;17.79;37.47;97439.16;5011211;28;20075;-65
2021/04/21 08:58:09;;;;;;;9.02;5.85;;;18.90;92.30;;;18.06;37.48;97436.28;5027788;28;20049;-65
2021/04/21 09:00:39;;;;;;;12.65;6.63;;;19.40;92.20;;;18.32;33.60;97439.56;5031619;28;20037;-65
2021/04/21 09:03:06;;;;;;;17.08;7.15;;;19.20;85.80;;;18.11;35.55;97438.56;5013936;28;20053;-65
2021/04/21 09:05:32;;;;;;;16.80;6.70;;;19.60;85.90;;;18.94;33.68;97440.09;5024245;28;20034;-65
2021/04/21 09:08:00;;;;;;;9.98;6.45;;;19.70;82.60;;;18.72;34.13;97440.91;5029668;28;20046;-65
2021/04/21 09:10:27;;;;;;;13.98;6.78;;;19.60;83.40;;;18.40;35.03;97436.34;5003750;28;20509;-65
2021/04/21 09:12:53;;;;;;;10.73;6.80;;;19.60;83.50;;;18.39;33.73;97443.41;5021352;28;20065;-65
2021/04/21 09:15:19;;;;;;;13.40;7.50;;;19.80;78.70;;;18.79;34.36;97447.38;5036686;28;20069;-65
2021/04/21 09:17:50;;;;;;;10.95;6.95;;;20.00;79.90;;;18.83;31.63;97446.19;5030494;28;20113;-66
2021/04/21 09:20:22;;;;;;;11.48;7.65;;;20.40;75.30;;;18.63;33.33;97442.44;5011550;28;20042;-65
2021/04/21 09:23:06;;;;;;;11.13;7.00;;;20.40;75.00;;;19.54;30.86;97441.41;5027741;28;20051;-65
2021/04/21 09:25:35;;;;;;;10.50;6.07;;;20.50;70.40;;;19.92;32.20;97440.09;5030255;28;20041;-67
2021/04/21 09:28:04;;;;;;;8.68;6.40;;;21.00;72.80;;;19.76;32.52;97432.63;5038393;28;20462;-65
2021/04/21 09:30:32;;;;;;;8.52;6.22;;;21.20;71.80;;;19.38;33.12;97440.97;5029449;28;20061;-65
2021/04/21 09:32:59;;;;;;;10.30;6.45;;;21.00;71.20;;;19.05;32.44;97448.00;5030564;28;20477;-65
2021/04/21 09:35:33;;;;;;;9.43;6.07;;;21.00;68.90;;;19.54;30.70;97438.78;5030601;28;20033;-65
2021/04/21 09:38:07;;;;;;;8.07;6.28;;;20.90;66.90;;;19.73;29.77;97442.56;5028515;28;20048;-66
2021/04/21 09:40:56;;;;;;;12.00;7.43;;;20.80;64.90;;;19.37;31.38;97436.69;5026092;28;20660;-65
2021/04/21 09:43:44;;;;;;;9.32;6.65;;;20.70;67.00;;;19.74;29.89;97441.63;5037998;28;20072;-65
2021/04/21 09:46:41;;;;;;;11.13;6.93;;;20.40;65.60;;;18.26;33.23;97445.28;5029889;28;20038;-65
2021/04/21 09:49:40;;;;;;;9.27;6.90;;;20.50;68.40;;;18.17;32.74;97441.56;5002893;28;20129;-65
2021/04/21 09:52:28;;;;;;;8.80;5.90;;;19.90;65.90;;;18.70;33.11;97443.69;5029621;28;20269;-65
2021/04/21 09:55:15;;;;;;;10.90;6.65;;;20.10;67.80;;;19.60;32.87;97443.53;5022008;28;20043;-65
2021/04/21 09:58:02;;;;;;;8.30;5.90;;;20.90;68.80;;;19.67;32.03;97432.53;5024383;28;20055;-65
2021/04/21 10:00:49;;;;;;;6.97;5.40;;;21.60;65.90;;;19.56;31.78;97430.75;5030763;28;20069;-65
2021/04/21 10:03:35;;;;;;;8.60;5.00;;;21.90;63.70;;;20.14;31.76;97428.63;5012292;28;20187;-65
2021/04/21 10:06:22;;;;;;;9.40;5.50;;;22.00;65.10;;;19.50;30.07;97425.97;5029660;28;20046;-66
2021/04/21 10:09:32;;;;;;;6.20;4.45;;;22.20;59.70;;;19.96;29.26;97430.16;5035203;28;20505;-65
2021/04/21 10:12:32;;;;;;;7.47;5.03;;;21.90;59.40;;;18.51;31.61;97425.00;5029974;28;20446;-65
2021/04/21 10:15:13;;;;;;;9.35;5.70;;;20.80;60.70;;;18.70;31.82;97433.16;5009356;28;20076;-65
2021/04/21 10:17:45;;;;;;;6.28;4.90;;;20.60;61.80;;;19.50;29.41;97415.44;5008426;28;20138;-66
2021/04/21 10:20:16;;;;;;;7.13;4.03;;;20.70;60.30;;;20.03;31.11;97421.59;5013261;28;20104;-65
2021/04/21 10:22:47;;;;;;;6.50;4.70;;;21.40;63.00;;;20.60;29.17;97413.34;5029652;28;20045;-65
2021/04/21 10:25:15;;;;;;;8.43;5.38;;;22.20;59.00;;;19.42;29.36;97416.91;5016018;28;20096;-65
2021/04/21 10:27:42;;;;;;;6.40;4.35;;;22.40;57.70;;;19.44;30.88;97404.47;5016530;28;20066;-65
2021/04/21 10:30:10;;;;;;;6.78;4.25;;;21.90;58.00;;;20.38;28.37;97409.88;5030093;28;20041;-65
2021/04/21 10:32:37;;;;;;;8.10;5.20;;;22.50;55.80;;;20.99;28.19;97402.94;5031561;28;20410;-67
2021/04/21 10:35:24;;;;;;;5.45;3.90;;;22.80;55.60;;;20.92;28.26;97402.66;5029653;28;20060;-65
2021/04/21 10:38:16;;;;;;;8.07;4.70;;;23.30;54.90;;;20.54;27.19;97412.03;5016876;28;20417;-66
2021/04/21 10:40:43;;;;;;;5.95;4.25;;;23.00;51.80;;;20.43;26.27;97412.13;5018594;28;20076;-66
2021/04/21 10:43:10;;;;;;;6.82;4.25;;;22.80;50.10;;;19.85;28.78;97400.25;5017943;28;20521;-66
2021/04/21 10:45:48;;;;;;;6.47;3.75;;;23.30;52.00;;;21.60;27.25;97394.88;5012713;28;20567;-66
2021/04/21 10:48:44;;;;;;;4.80;3.15;;;24.00;52.50;;;22.24;28.31;97403.19;5030564;28;20037;-65
2021/04/21 10:51:35;;;;;;;5.40;3.40;;;25.20;54.20;;;22.01;25.61;97399.97;5013839;28;20049;-67
2021/04/21 10:54:09;;;;;;;4.88;3.92;;;25.70;48.10;;;22.05;24.92;97396.06;5025263;28;20049;-65
2021/04/21 10:56:37;;;;;;;4.20;2.92;;;24.80;46.50;;;22.13;24.09;97388.28;5000705;28;20065;-65
2021/04/21 10:59:04;;;;;;;3.85;2.85;;;24.90;47.30;;;22.02;24.82;97394.56;5026043;28;20037;-65
2021/04/21 11:01:39;;;;;;;5.05;3.72;;;25.20;46.80;;;21.02;25.65;97390.31;5026770;28;20034;-66
2021/04/21 11:04:06;;;;;;;6.22;4.13;;;24.50;46.00;;;20.34;26.00;97405.00;5010490;28;20132;-65
2021/04/21 11:06:39;;;;;;;6.55;4.15;;;23.40;45.80;;;20.08;27.51;97392.22;5029056;28;20037;-65
2021/04/21 11:09:07;;;;;;;6.70;4.57;;;23.10;48.10;;;19.48;29.79;97391.06;5029606;28;20046;-65
2021/04/21 11:11:40;;;;;;;6.75;5.15;;;22.30;51.20;;;19.13;32.53;97392.94;5029351;28;20045;-65
2021/04/21 11:14:09;;;;;;;7.60;5.95;;;21.20;56.20;;;18.66;33.41;97389.66;5027891;28;20042;-65
2021/04/21 11:16:40;;;;;;;11.40;5.40;;;20.70;57.90;;;17.99;32.68;97398.28;5027240;28;20057;-65
2021/04/21 11:19:19;;;;;;;13.48;6.07;;;20.00;56.80;;;17.51;32.88;97387.84;5029461;28;20406;-64
2021/04/21 11:21:48;;;;;;;9.18;5.20;;;19.20;57.60;;;17.57;33.48;97392.66;5002204;28;20050;-64